createdAt,value
2024-05-09T00:03:41.751Z,13.11
2024-05-09T00:08:44.322Z,12.95
2024-05-09T00:13:47.710Z,12.99
2024-05-09T00:18:50.240Z,12.83
2024-05-09T00:23:52.636Z,12.95
2024-05-09T00:28:55.017Z,12.88
2024-05-09T00:33:57.698Z,12.84
2024-05-09T00:39:00.154Z,12.85
2024-05-09T00:44:02.985Z,12.97
2024-05-09T00:49:05.919Z,12.88
2024-05-09T00:54:10.220Z,12.82
2024-05-09T00:59:13.295Z,12.79
2024-05-09T01:04:16.074Z,12.78
2024-05-09T01:09:18.555Z,12.79
2024-05-09T01:14:21.344Z,12.87
2024-05-09T01:19:28.843Z,12.83
2024-05-09T01:24:31.326Z,12.88
2024-05-09T01:29:33.717Z,12.88
2024-05-09T01:34:36.193Z,12.80
2024-05-09T01:39:38.709Z,12.77
2024-05-09T01:44:41.334Z,12.57
2024-05-09T01:49:43.924Z,12.43
2024-05-09T01:54:46.537Z,12.62
2024-05-09T01:59:48.880Z,12.76
2024-05-09T02:04:51.396Z,12.57
2024-05-09T02:09:54.204Z,12.46
2024-05-09T02:14:56.673Z,12.52
2024-05-09T02:19:59.156Z,12.72
2024-05-09T02:25:01.583Z,12.82
2024-05-09T02:30:09.816Z,12.74
2024-05-09T02:35:17.270Z,12.79
2024-05-09T02:40:25.682Z,12.83
2024-05-09T02:45:36.002Z,12.78
2024-05-09T02:50:40.995Z,12.73
2024-05-09T02:55:43.709Z,12.80
2024-05-09T03:00:46.532Z,12.75
2024-05-09T03:05:49.255Z,12.75
2024-05-09T03:10:51.871Z,12.92
2024-05-09T03:15:54.230Z,12.75
2024-05-09T03:20:56.638Z,12.65
2024-05-09T03:25:59.470Z,12.49
2024-05-09T03:31:01.904Z,12.68
2024-05-09T03:36:09.780Z,12.62
2024-05-09T03:41:13.447Z,12.61
2024-05-09T03:46:16.141Z,12.74
2024-05-09T03:51:18.655Z,12.60
2024-05-09T03:56:21.330Z,12.62
2024-05-09T04:01:25.863Z,12.94
2024-05-09T04:06:28.349Z,13.05
2024-05-09T04:11:30.870Z,13.11
2024-05-09T04:16:33.537Z,13.13
2024-05-09T04:21:36.487Z,13.47
2024-05-09T04:26:38.892Z,13.62
2024-05-09T04:31:41.202Z,13.69
2024-05-09T04:36:44.627Z,13.69
2024-05-09T04:41:47.212Z,13.76
2024-05-09T04:46:49.615Z,13.86
2024-05-09T04:51:52.132Z,13.94
2024-05-09T04:56:54.493Z,13.75
2024-05-09T05:01:57.073Z,13.78
2024-05-09T05:07:02.100Z,13.79
2024-05-09T05:12:25.465Z,13.72
2024-05-09T05:17:28.746Z,13.93
2024-05-09T05:22:31.424Z,14.00
2024-05-09T05:27:33.775Z,13.99
2024-05-09T05:32:36.139Z,14.01
2024-05-09T05:37:38.573Z,13.90
2024-05-09T05:42:41.644Z,14.00
2024-05-09T05:47:44.246Z,13.99
2024-05-09T05:52:46.662Z,14.14
2024-05-09T05:57:48.930Z,14.06
2024-05-09T06:02:51.428Z,14.09
2024-05-09T06:07:53.851Z,13.99
2024-05-09T06:12:56.199Z,14.07
2024-05-09T06:17:59.352Z,14.05
2024-05-09T06:23:03.268Z,13.76
2024-05-09T06:28:06.210Z,13.92
2024-05-09T06:33:11.060Z,13.84
2024-05-09T06:38:15.364Z,13.92
2024-05-09T06:43:19.442Z,13.96
2024-05-09T06:48:22.968Z,13.96
2024-05-09T06:53:25.728Z,14.13
2024-05-09T06:58:28.222Z,14.43
2024-05-09T07:03:31.675Z,14.49
2024-05-09T07:08:34.400Z,14.86
2024-05-09T07:13:37.219Z,15.00
2024-05-09T07:18:39.956Z,14.93
2024-05-09T07:23:45.428Z,15.13
2024-05-09T07:28:49.615Z,15.15
2024-05-09T07:33:52.639Z,15.42
2024-05-09T07:38:55.325Z,15.72
2024-05-09T07:44:00.687Z,15.61
2024-05-09T07:50:53.250Z,15.68
2024-05-09T07:54:25.921Z,15.74
2024-05-09T07:59:28.338Z,15.62
2024-05-09T08:04:30.964Z,15.28
2024-05-09T08:09:34.671Z,15.29
2024-05-09T08:14:38.223Z,15.23
2024-05-09T08:19:42.249Z,15.18
2024-05-09T08:24:47.093Z,14.97
2024-05-09T08:29:51.914Z,14.79
2024-05-09T08:34:54.503Z,14.38
2024-05-09T08:39:58.867Z,14.33
2024-05-09T08:45:02.203Z,14.14
2024-05-09T08:50:11.033Z,14.09
2024-05-09T08:55:19.133Z,14.10
2024-05-09T09:00:29.701Z,14.05
2024-05-09T09:05:41.071Z,14.12
2024-05-09T09:10:43.734Z,14.18
2024-05-09T09:15:50.622Z,14.24
2024-05-09T09:20:53.049Z,14.19
2024-05-09T09:26:00.910Z,14.24
2024-05-09T09:31:04.181Z,14.12
2024-05-09T09:36:08.972Z,14.31
2024-05-09T09:41:12.972Z,14.34
2024-05-09T09:46:16.732Z,14.08
2024-05-09T09:51:20.214Z,14.25
2024-05-09T09:56:24.305Z,14.16
2024-05-09T10:01:27.187Z,14.11
2024-05-09T10:06:30.809Z,14.00
2024-05-09T10:11:42.048Z,13.93
2024-05-09T10:16:48.313Z,13.78
2024-05-09T10:21:50.791Z,13.67
2024-05-09T10:26:54.179Z,13.73
2024-05-09T10:32:00.294Z,13.69
2024-05-09T10:37:04.752Z,13.58
2024-05-09T10:42:10.398Z,13.49
2024-05-09T10:47:12.892Z,13.41
2024-05-09T10:52:19.897Z,13.53
2024-05-09T10:57:23.117Z,13.39
2024-05-09T11:02:25.648Z,13.27
2024-05-09T11:07:28.230Z,13.25
2024-05-09T11:12:30.683Z,13.06
2024-05-09T11:17:41.888Z,12.96
2024-05-09T11:22:44.322Z,12.83
2024-05-09T11:27:46.584Z,12.81
2024-05-09T11:32:50.077Z,12.77
2024-05-09T11:37:52.568Z,12.78
2024-05-09T11:42:54.859Z,12.80
2024-05-09T11:47:57.616Z,12.86
2024-05-09T11:53:00.017Z,13.00
2024-05-09T11:58:05.923Z,12.96
2024-05-09T12:03:08.427Z,12.94
2024-05-09T12:08:11.229Z,12.99
2024-05-09T12:13:13.816Z,12.93
2024-05-09T12:18:16.204Z,12.90
2024-05-09T12:23:18.731Z,12.81
2024-05-09T12:28:21.948Z,12.71
2024-05-09T12:33:24.751Z,12.59
2024-05-09T12:38:27.460Z,12.62
2024-05-09T12:43:30.378Z,12.51
2024-05-09T12:48:33.071Z,12.48
2024-05-09T12:53:36.687Z,12.50
2024-05-09T12:58:39.389Z,12.55
2024-05-09T13:03:41.999Z,12.44
2024-05-09T13:08:44.620Z,12.48
2024-05-09T13:13:46.924Z,12.56
2024-05-09T13:18:49.560Z,12.62
2024-05-09T13:23:52.106Z,12.67
2024-05-09T13:28:54.391Z,12.65
2024-05-09T13:33:56.851Z,12.75
2024-05-09T13:38:59.733Z,12.75
2024-05-09T13:44:01.983Z,12.77
2024-05-09T13:49:05.052Z,12.75
2024-05-09T13:54:08.298Z,12.72
2024-05-09T13:59:10.884Z,12.80
2024-05-09T14:04:13.437Z,12.81
2024-05-09T14:09:16.249Z,12.64
2024-05-09T14:14:18.651Z,12.70
2024-05-09T14:19:21.613Z,12.63
2024-05-09T14:24:24.170Z,12.62
2024-05-09T14:29:26.509Z,12.55
2024-05-09T14:34:29.111Z,12.66
2024-05-09T14:39:31.844Z,12.41
2024-05-09T14:44:34.208Z,12.47
2024-05-09T14:49:36.829Z,12.52
2024-05-09T14:54:39.195Z,12.41
2024-05-09T14:59:41.534Z,12.47
2024-05-09T15:04:44.140Z,12.44
2024-05-09T15:09:47.515Z,12.52
2024-05-09T15:14:50.362Z,12.55
2024-05-09T15:19:52.958Z,12.56
2024-05-09T15:24:55.399Z,12.63
2024-05-09T15:29:57.779Z,12.59
2024-05-09T15:35:00.216Z,12.61
2024-05-09T15:40:04.187Z,12.54
2024-05-09T15:45:07.435Z,12.26
2024-05-09T15:50:17.264Z,12.37
2024-05-09T15:55:25.839Z,12.25
2024-05-09T16:00:36.612Z,12.25
2024-05-09T16:05:46.918Z,12.29
2024-05-09T16:10:50.539Z,12.21
2024-05-09T16:15:53.290Z,12.20
2024-05-09T16:21:02.805Z,12.19
2024-05-09T16:26:06.093Z,12.26
2024-05-09T16:31:08.534Z,12.14
2024-05-09T16:36:10.996Z,12.05
2024-05-09T16:41:15.683Z,12.00
2024-05-09T16:46:18.089Z,11.92
2024-05-09T16:51:20.521Z,11.87
2024-05-09T16:56:26.218Z,11.84
2024-05-09T17:01:28.984Z,11.76
2024-05-09T17:06:31.497Z,11.73
2024-05-09T17:11:36.078Z,11.72
2024-05-09T17:16:38.755Z,11.73
2024-05-09T17:21:41.293Z,11.72
2024-05-09T17:26:43.964Z,11.77
2024-05-09T17:31:47.102Z,11.71
2024-05-09T17:36:49.479Z,11.67
2024-05-09T17:41:52.203Z,11.79
2024-05-09T17:46:54.587Z,11.76
2024-05-09T17:51:57.468Z,11.72
2024-05-09T17:56:59.855Z,11.72
2024-05-09T18:02:02.401Z,11.68
2024-05-09T18:07:05.475Z,11.70
2024-05-09T18:12:09.172Z,11.72
2024-05-09T18:17:13.896Z,11.72
2024-05-09T18:22:16.305Z,11.74
2024-05-09T18:27:18.804Z,11.74
2024-05-09T18:32:21.851Z,11.71
2024-05-09T18:37:24.437Z,11.60
2024-05-09T18:42:27.004Z,11.68
2024-05-09T18:47:29.394Z,11.63
2024-05-09T18:52:31.673Z,11.76
2024-05-09T18:57:34.084Z,11.66
2024-05-09T19:02:36.481Z,11.66
2024-05-09T19:07:38.853Z,11.72
2024-05-09T19:12:41.203Z,11.69
2024-05-09T19:17:43.859Z,11.65
2024-05-09T19:22:46.440Z,11.57
2024-05-09T19:27:49.004Z,11.49
2024-05-09T19:32:51.550Z,11.58
2024-05-09T19:37:54.262Z,11.49
2024-05-09T19:42:56.714Z,11.55
2024-05-09T19:47:59.242Z,11.59
2024-05-09T19:53:01.911Z,11.52
2024-05-09T19:58:05.942Z,11.49
2024-05-09T20:03:10.259Z,11.45
2024-05-09T20:08:13.250Z,11.57
2024-05-09T20:13:15.666Z,11.54
2024-05-09T20:18:18.867Z,11.55
2024-05-09T20:23:21.570Z,11.55
2024-05-09T20:28:24.274Z,11.53
2024-05-09T20:33:27.563Z,11.69
2024-05-09T20:38:29.925Z,11.56
2024-05-09T20:43:32.505Z,11.61
2024-05-09T20:48:35.099Z,11.53
2024-05-09T20:53:37.535Z,11.55
2024-05-09T20:58:39.954Z,11.43
2024-05-09T21:03:42.386Z,11.49
2024-05-09T21:08:44.781Z,11.43
2024-05-09T21:13:47.454Z,11.46
2024-05-09T21:18:50.234Z,11.56
2024-05-09T21:23:52.569Z,11.52
2024-05-09T21:28:55.048Z,11.56
2024-05-09T21:33:57.502Z,11.59
2024-05-09T21:39:00.259Z,11.40
2024-05-09T21:44:02.593Z,11.53
2024-05-09T21:49:05.033Z,11.51
2024-05-09T21:54:07.382Z,11.46
2024-05-09T21:59:09.664Z,11.40
2024-05-09T22:04:12.023Z,11.30
2024-05-09T22:09:14.653Z,11.26
2024-05-09T22:14:17.190Z,11.25
2024-05-09T22:19:19.564Z,11.23
2024-05-09T22:24:22.025Z,11.15
2024-05-09T22:29:24.335Z,11.19
2024-05-09T22:34:26.897Z,11.18
2024-05-09T22:39:29.309Z,10.91
2024-05-09T22:44:31.572Z,10.91
2024-05-09T22:49:33.981Z,10.86
2024-05-09T22:54:36.782Z,10.96
2024-05-09T22:59:39.228Z,10.98
2024-05-09T23:04:42.108Z,11.05
2024-05-09T23:09:47.952Z,11.09
2024-05-09T23:14:50.248Z,11.04
2024-05-09T23:19:52.515Z,10.78
2024-05-09T23:24:54.902Z,10.81
2024-05-09T23:29:57.747Z,10.80
2024-05-09T23:35:00.451Z,10.79
2024-05-09T23:40:05.086Z,10.73
2024-05-09T23:45:09.389Z,10.65
2024-05-09T23:50:16.947Z,10.63
2024-05-09T23:55:26.022Z,10.68
